Decoded Metar for LYBT (BELGRADE BATAJNICA in SERBIA) (IATA:N/A) | Meteo·Mobile Aviation Weather
aviador You're here:

LYBT Decoded Metar

BELGRADE BATAJNICA in SERBIA
Report Time2019-04-23 08:00:00
UTC Time2019-04-23 08:11:00
Flight Rules vfr VFR
Wind100° at 19 kt
W.Decomp.*RWY 12: 17.4 kt HW 7.7 kt LCW
Visibility9999 m
Phenomena:N/A
Clouds:Scattered 013 Hf
Expected CloudBase > 800 ft AGL from Temp-Dew spread
CeilingNone
Temp09°C (ISA -5)
Dew Point07°C (87% RH)
AAT1.4°C
QNH1017 hPa
Density Alt-394 ft
Elevation262 ft
Report Wrong Elevation
Raw Report
METAR LYBT 230800Z 10019KT 070V130 9999 SCT013 09/07 Q1017 NOSIG=

Extra information for LYBT:More info

Metar Taf Metar & Taf Last 4 Metars F.Rules Stats Wind Profile Meteogram Temp Stats Airport Information Weather charts Add Link Nearby VenuesMetar ALERT Operation Metar Decoded Social comments